Terminal Aerodrome Forecast
Issued by NWS Riverton, WY

Home | Current Version | Previous Version | Text Only | Print | Product List | Glossary On
Versions: 1 2 3 4 5 6 7 8 9 10 11 12 13 14 15 16 17
000
FTUS45 KRIW 170053 AAA
TAFRIW
TAF AMD
KRIW 170053Z 1701/1724 06011KT 3/4SM -SN BR VV004
     FM170230 04009KT 2SM -SN BR SCT004 OVC009
     FM170400 01011KT 6SM -SN OVC025
     FM170900 31007KT P6SM VCFG FEW002 BKN040
     FM171700 31007KT P6SM FEW100=

USA.gov is the U.S. government's official web portal to all federal, state and local government web resources and services.